createdAt,value
2023-04-10T00:01:52.957Z,13.09
2023-04-10T00:06:56.067Z,13.20
2023-04-10T00:11:58.255Z,13.23
2023-04-10T00:17:00.529Z,13.11
2023-04-10T00:22:02.969Z,13.18
2023-04-10T00:27:05.327Z,13.24
2023-04-10T00:32:07.645Z,13.24
2023-04-10T00:37:10.592Z,13.19
2023-04-10T00:42:12.875Z,13.08
2023-04-10T00:47:15.972Z,13.08
2023-04-10T00:52:18.823Z,13.24
2023-04-10T00:57:21.029Z,13.12
2023-04-10T01:02:23.337Z,13.34
2023-04-10T01:07:31.711Z,13.27
2023-04-10T01:13:08.061Z,13.27
2023-04-10T01:18:32.027Z,13.24
2023-04-10T01:24:04.501Z,13.29
2023-04-10T01:29:14.635Z,13.09
2023-04-10T01:34:22.398Z,12.92
2023-04-10T01:39:26.727Z,12.94
2023-04-10T01:44:31.358Z,12.97
2023-04-10T01:49:35.013Z,13.17
2023-04-10T01:54:37.319Z,13.06
2023-04-10T01:59:40.156Z,13.10
2023-04-10T02:04:42.387Z,13.11
2023-04-10T02:10:07.767Z,13.25
2023-04-10T02:15:12.301Z,13.19
2023-04-10T02:20:16.566Z,13.11
2023-04-10T02:25:18.783Z,12.99
2023-04-10T02:30:21.197Z,13.14
2023-04-10T02:35:23.412Z,13.18
2023-04-10T02:40:25.651Z,13.13
2023-04-10T02:45:27.710Z,12.94
2023-04-10T02:50:32.171Z,12.93
2023-04-10T02:55:34.298Z,12.92
2023-04-10T03:00:36.390Z,12.89
2023-04-10T03:05:38.501Z,12.84
2023-04-10T03:10:43.168Z,12.87
2023-04-10T03:15:45.431Z,12.75
2023-04-10T03:20:47.776Z,12.87
2023-04-10T03:25:56.487Z,12.80
2023-04-10T03:30:58.764Z,12.92
2023-04-10T03:36:01.216Z,12.68
2023-04-10T03:41:03.758Z,12.75
2023-04-10T03:46:06.703Z,12.71
2023-04-10T03:51:08.856Z,12.56
2023-04-10T03:56:11.150Z,12.64
2023-04-10T04:01:13.387Z,12.84
2023-04-10T04:06:15.632Z,12.70
2023-04-10T04:11:17.745Z,12.88
2023-04-10T04:16:19.999Z,12.76
2023-04-10T04:21:22.241Z,12.75
2023-04-10T04:26:25.408Z,12.89
2023-04-10T04:31:32.886Z,12.69
2023-04-10T04:36:35.232Z,12.66
2023-04-10T04:41:37.356Z,12.64
2023-04-10T04:46:39.528Z,12.79
2023-04-10T04:51:41.714Z,12.77
2023-04-10T04:56:44.198Z,12.83
2023-04-10T05:01:46.758Z,12.86
2023-04-10T05:06:49.061Z,12.75
2023-04-10T05:11:51.801Z,12.82
2023-04-10T05:16:53.911Z,12.82
2023-04-10T05:21:56.052Z,12.85
2023-04-10T05:26:58.271Z,12.71
2023-04-10T05:32:00.656Z,12.83
2023-04-10T05:37:02.813Z,12.67
2023-04-10T05:42:05.006Z,12.82
2023-04-10T05:47:07.077Z,12.84
2023-04-10T05:52:09.321Z,12.68
2023-04-10T05:57:11.440Z,12.74
2023-04-10T06:02:13.798Z,12.85
2023-04-10T06:07:16.226Z,12.92
2023-04-10T06:12:18.623Z,13.04
2023-04-10T06:17:21.836Z,12.94
2023-04-10T06:22:24.056Z,12.96
2023-04-10T06:27:27.666Z,12.95
2023-04-10T06:32:29.889Z,13.23
2023-04-10T06:37:33.071Z,13.48
2023-04-10T06:42:35.988Z,13.60
2023-04-10T06:47:38.412Z,13.71
2023-04-10T06:52:40.596Z,13.72
2023-04-10T06:57:42.808Z,13.84
2023-04-10T07:02:45.191Z,13.44
2023-04-10T07:07:47.940Z,13.65
2023-04-10T07:12:50.005Z,13.32
2023-04-10T07:17:52.159Z,13.28
2023-04-10T07:22:54.396Z,13.44
2023-04-10T07:27:56.557Z,13.74
2023-04-10T07:32:59.043Z,13.41
2023-04-10T07:38:02.132Z,13.27
2023-04-10T07:43:04.521Z,13.66
2023-04-10T07:48:07.322Z,13.82
2023-04-10T07:53:09.473Z,14.00
2023-04-10T07:58:11.821Z,13.88
2023-04-10T08:03:16.273Z,13.34
2023-04-10T08:08:18.598Z,13.51
2023-04-10T08:13:20.723Z,13.90
2023-04-10T08:18:23.065Z,13.61
2023-04-10T08:23:25.477Z,13.89
2023-04-10T08:28:27.737Z,14.36
2023-04-10T08:33:29.957Z,14.65
2023-04-10T08:38:32.142Z,14.99
2023-04-10T08:43:35.766Z,14.67
2023-04-10T08:48:54.058Z,15.13
2023-04-10T08:54:06.350Z,15.14
2023-04-10T08:59:09.099Z,14.90
2023-04-10T09:04:14.237Z,15.09
2023-04-10T09:09:16.820Z,15.34
2023-04-10T09:14:26.233Z,15.50
2023-04-10T09:19:32.868Z,15.53
2023-04-10T09:24:44.468Z,15.27
2023-04-10T09:29:52.071Z,15.52
2023-04-10T09:35:00.836Z,15.84
2023-04-10T09:40:04.166Z,15.27
2023-04-10T09:45:07.127Z,15.56
2023-04-10T09:50:09.374Z,15.47
2023-04-10T09:55:17.960Z,16.07
2023-04-10T10:00:21.085Z,16.37
2023-04-10T10:05:28.474Z,16.37
2023-04-10T10:10:31.567Z,16.37
2023-04-10T10:15:45.173Z,16.49
2023-04-10T10:20:48.173Z,15.86
2023-04-10T10:25:52.262Z,16.01
2023-04-10T10:30:56.014Z,16.12
2023-04-10T10:36:02.069Z,16.50
2023-04-10T10:41:24.140Z,16.70
2023-04-10T10:46:46.648Z,16.63
2023-04-10T10:51:52.618Z,16.71
2023-04-10T10:56:54.792Z,16.88
2023-04-10T11:02:14.011Z,16.83
2023-04-10T11:07:17.032Z,16.65
2023-04-10T11:12:26.660Z,16.55
2023-04-10T11:17:49.205Z,16.79
2023-04-10T11:23:10.966Z,17.20
2023-04-10T11:28:36.102Z,17.15
2023-04-10T11:33:38.772Z,17.41
2023-04-10T11:38:40.843Z,17.67
2023-04-10T11:43:42.981Z,18.16
2023-04-10T11:48:45.293Z,18.07
2023-04-10T11:53:47.645Z,18.01
2023-04-10T11:58:53.240Z,18.23
2023-04-10T12:03:55.934Z,18.22
2023-04-10T12:08:58.532Z,18.49
2023-04-10T12:14:00.787Z,18.71
2023-04-10T12:19:03.281Z,18.61
2023-04-10T12:24:06.302Z,18.82
2023-04-10T12:29:10.320Z,18.92
2023-04-10T12:34:18.896Z,19.40
2023-04-10T12:39:25.474Z,19.41
2023-04-10T12:44:28.259Z,19.19
2023-04-10T12:49:30.683Z,18.90
2023-04-10T12:54:35.211Z,18.81
2023-04-10T12:59:37.785Z,18.70
2023-04-10T13:04:40.601Z,18.68
2023-04-10T13:09:43.225Z,18.65
2023-04-10T13:14:46.548Z,18.84
2023-04-10T13:19:49.066Z,18.76
2023-04-10T13:24:51.197Z,18.82
2023-04-10T13:29:53.490Z,18.63
2023-04-10T13:34:57.648Z,18.44
2023-04-10T13:39:59.966Z,18.35
2023-04-10T13:45:02.368Z,18.31
2023-04-10T13:50:04.676Z,17.95
2023-04-10T13:55:07.799Z,17.78
2023-04-10T14:00:10.657Z,17.56
2023-04-10T14:05:12.886Z,17.41
2023-04-10T14:10:15.130Z,17.15
2023-04-10T14:15:17.444Z,17.20
2023-04-10T14:20:19.781Z,16.98
2023-04-10T14:25:22.021Z,17.07
2023-04-10T14:30:26.284Z,16.00
2023-04-10T14:35:28.360Z,14.93
2023-04-10T14:40:30.590Z,14.45
2023-04-10T14:45:33.397Z,14.26
2023-04-10T14:50:35.655Z,14.28
2023-04-10T14:55:37.813Z,14.63
2023-04-10T15:00:40.807Z,14.69
2023-04-10T15:05:43.243Z,14.61
2023-04-10T15:10:45.634Z,15.32
2023-04-10T15:15:48.988Z,16.23
2023-04-10T15:20:51.269Z,18.39
2023-04-10T15:25:53.990Z,18.82
2023-04-10T15:30:56.484Z,18.54
2023-04-10T15:35:58.780Z,18.58
2023-04-10T15:41:01.075Z,18.37
2023-04-10T15:46:03.769Z,18.36
2023-04-10T15:51:06.887Z,17.92
2023-04-10T15:56:09.270Z,17.79
2023-04-10T16:01:11.472Z,18.02
2023-04-10T16:06:13.698Z,18.48
2023-04-10T16:11:16.025Z,18.58
2023-04-10T16:16:18.862Z,18.28
2023-04-10T16:21:22.115Z,17.41
2023-04-10T16:26:24.388Z,16.92
2023-04-10T16:31:26.732Z,16.46
2023-04-10T16:36:29.088Z,16.24
2023-04-10T16:41:31.409Z,15.95
2023-04-10T16:46:33.577Z,15.89
2023-04-10T16:51:35.767Z,15.70
2023-04-10T16:56:37.963Z,15.67
2023-04-10T17:01:40.188Z,15.53
2023-04-10T17:06:42.562Z,15.61
2023-04-10T17:11:44.837Z,15.64
2023-04-10T17:16:47.149Z,15.57
2023-04-10T17:21:49.492Z,15.46
2023-04-10T17:26:51.766Z,15.40
2023-04-10T17:31:53.991Z,15.27
2023-04-10T17:36:56.237Z,14.97
2023-04-10T17:41:58.340Z,14.75
2023-04-10T17:47:02.282Z,15.12
2023-04-10T17:52:04.581Z,15.12
2023-04-10T17:57:07.089Z,15.20
2023-04-10T18:02:09.188Z,15.32
2023-04-10T18:07:11.766Z,15.35
2023-04-10T18:12:13.939Z,14.79
2023-04-10T18:17:16.159Z,14.39
2023-04-10T18:22:19.544Z,14.35
2023-04-10T18:27:21.877Z,14.18
2023-04-10T18:32:24.111Z,14.25
2023-04-10T18:37:26.399Z,14.36
2023-04-10T18:42:28.538Z,14.44
2023-04-10T18:47:30.674Z,14.62
2023-04-10T18:52:32.801Z,14.60
2023-04-10T18:57:34.982Z,14.51
2023-04-10T19:02:37.457Z,14.73
2023-04-10T19:07:43.245Z,14.72
2023-04-10T19:12:48.452Z,14.51
2023-04-10T19:17:54.402Z,14.08
2023-04-10T19:22:56.617Z,13.64
2023-04-10T19:27:58.937Z,13.83
2023-04-10T19:33:01.149Z,13.69
2023-04-10T19:38:03.364Z,13.88
2023-04-10T19:43:05.619Z,13.58
2023-04-10T19:48:09.697Z,13.38
2023-04-10T19:53:13.292Z,12.96
2023-04-10T19:58:35.713Z,13.45
2023-04-10T20:03:38.839Z,13.73
2023-04-10T20:08:41.070Z,13.80
2023-04-10T20:13:43.345Z,13.92
2023-04-10T20:18:45.644Z,14.02
2023-04-10T20:23:48.089Z,14.03
2023-04-10T20:28:50.193Z,13.96
2023-04-10T20:33:54.254Z,13.96
2023-04-10T20:38:57.382Z,13.88
2023-04-10T20:44:00.049Z,13.73
2023-04-10T20:49:02.319Z,13.52
2023-04-10T20:54:06.298Z,13.62
2023-04-10T20:59:08.627Z,13.61
2023-04-10T21:04:10.936Z,13.70
2023-04-10T21:09:13.161Z,13.94
2023-04-10T21:14:15.326Z,13.90
2023-04-10T21:19:17.950Z,13.69
2023-04-10T21:24:20.134Z,13.66
2023-04-10T21:29:22.386Z,13.26
2023-04-10T21:34:24.524Z,12.41
2023-04-10T21:39:26.796Z,12.40
2023-04-10T21:44:29.007Z,12.55
2023-04-10T21:49:31.790Z,12.83
2023-04-10T21:54:33.940Z,12.96
2023-04-10T21:59:37.070Z,13.13
2023-04-10T22:04:51.505Z,13.00
2023-04-10T22:09:56.387Z,12.64
2023-04-10T22:14:58.783Z,12.69
2023-04-10T22:20:01.267Z,12.78
2023-04-10T22:25:03.490Z,12.85
2023-04-10T22:30:06.349Z,12.97
2023-04-10T22:35:08.945Z,13.03
2023-04-10T22:40:13.121Z,12.88
2023-04-10T22:45:16.207Z,12.97
2023-04-10T22:50:18.447Z,12.96
2023-04-10T22:55:20.648Z,12.71
2023-04-10T23:00:22.863Z,12.54
2023-04-10T23:05:25.049Z,12.56
2023-04-10T23:10:27.104Z,12.47
2023-04-10T23:15:29.310Z,12.48
2023-04-10T23:20:31.635Z,12.42
2023-04-10T23:25:33.866Z,12.44
2023-04-10T23:30:40.221Z,12.20
2023-04-10T23:35:42.386Z,12.08
2023-04-10T23:40:44.782Z,12.11
2023-04-10T23:45:46.940Z,12.29
2023-04-10T23:50:49.250Z,12.33
2023-04-10T23:55:51.330Z,12.18
